METAR Data
IDs: Format: Raw Decoded Include TAF

Data at: 1919 UTC 26 Sep 2021

METAR for:KPWM (Portland Intl, ME, US)
Text:KPWM 261851Z 31009KT 10SM SCT036 BKN050 BKN060 21/14 A2968 RMK AO2 RAE18 SLP049 P0001 T02060139
Temperature: 20.6°C ( 69°F)
Dewpoint: 13.9°C ( 57°F) [RH = 65%]
Pressure (altimeter):29.68 inches Hg (1005.2 mb) [Sea level pressure: 1004.9 mb]
Winds:from the NW (310 degrees) at 10 MPH (9 knots; 4.6 m/s)
Visibility:10 or more sm (16+ km)
Ceiling:5000 feet AGL
Clouds: scattered clouds at 3600 feet AGL, broken clouds at 5000 feet AGL, broken clouds at 6000 feet AGL

TAF for:KPWM (Portland Intl, ME, US) issued at 1720 UTC 26 Sep 2021
Text:KPWM 261720Z 2618/2718 31008KT P6SM SCT080
Forecast period:1800 UTC 26 September 2021 to 0000 UTC 27 September 2021
Forecast type:FROM: standard forecast or significant change
Winds:from the NW (310 degrees) at 9 MPH (8 knots; 4.1 m/s)
Visibility:6 or more sm (10+ km)
Ceiling:at least 12,000 feet AGL
Clouds: scattered clouds at 8000 feet AGL
Text:FM270000 29006KT P6SM SKC
Forecast period:0000 to 1800 UTC 27 September 2021
Forecast type:FROM: standard forecast or significant change
Winds:from the WNW (290 degrees) at 7 MPH (6 knots; 3.1 m/s)
Visibility:6 or more sm (10+ km)
Ceiling:at least 12,000 feet AGL
Clouds:clear skies